aviador You're here:

SCAR Decoded Metar

ARICA in CHILE
Report Time2017-10-22 06:00:00
UTC Time2017-10-22 06:35:48
Flight Rules mvfr MVFR
Wind160° at 02 kt
W.Decomp.*RWY 20: 1.6 kt HW 1.2 kt LCW
W.Rank160° ranks 14
Current wind is below 160° avg. (3.3)
Visibility9999 m
Phenomena:N/A
Clouds:Overcast 023 Hf
Expected CloudBase > 2,400 ft AGL from Temp-Dew spread
Ceiling2,300 ft
Temp18°C (ISA +3)
Dew Point12°C (68% RH)
AAT17.9°C
QNH1014 hPa
Density Alt748 ft
Elevation194 ft
Report Wrong Elevation
Raw Report
SCAR 220600Z 16002KT 9999 OVC023 18/12 Q1014=

Extra information for SCAR:More info

Metar Taf Metar & Taf Last 4 Metars F.Rules Stats Wind Profile Meteogram Temp Stats Airport Information Weather charts Add Link Nearby VenuesMetar ALERT Operation Metar Decoded Social comments